createdAt,value
2022-07-29T00:03:15.438Z,1017.82
2022-07-29T00:12:52.442Z,1017.71
2022-07-29T00:22:29.259Z,1017.7
2022-07-29T00:32:06.188Z,1017.55
2022-07-29T00:41:43.444Z,1017.56
2022-07-29T00:51:20.446Z,1017.58
2022-07-29T01:00:57.339Z,1017.53
2022-07-29T01:10:34.557Z,1017.42
2022-07-29T01:20:11.729Z,1017.33
2022-07-29T01:29:48.912Z,1017.32
2022-07-29T01:39:26.404Z,1017.18
2022-07-29T01:49:03.794Z,1017.03
2022-07-29T01:58:41.276Z,1016.95
2022-07-29T02:08:18.301Z,1017.07
2022-07-29T02:17:55.141Z,1017.14
2022-07-29T02:27:32.151Z,1017.17
2022-07-29T02:37:09.528Z,1017.16
2022-07-29T03:05:59.791Z,1017.04
2022-07-29T03:15:36.994Z,1017.13
2022-07-29T03:25:14.330Z,1017.2
2022-07-29T03:34:50.908Z,1017.14
2022-07-29T03:44:27.859Z,1017.17
2022-07-29T03:54:09.781Z,1017.21
2022-07-29T04:03:42.466Z,1017.22
2022-07-29T04:13:20.192Z,1017.33
2022-07-29T04:22:57.515Z,1017.33
2022-07-29T04:32:35.245Z,1017.21
2022-07-29T04:42:13.423Z,1017.21
2022-07-29T04:51:51.150Z,1017.17
2022-07-29T05:01:28.966Z,1017.17
2022-07-29T05:11:11.934Z,1017.1
2022-07-29T05:49:36.084Z,1017.09
2022-07-29T05:59:15.186Z,1017.07
2022-07-29T06:08:51.125Z,1017.09
2022-07-29T06:18:28.847Z,1017.13
2022-07-29T06:28:06.612Z,1017.2
2022-07-29T06:37:44.312Z,1017.09
2022-07-29T06:47:22.926Z,1017.05
2022-07-29T06:57:00.899Z,1016.96
2022-07-29T07:06:39.381Z,1016.93
2022-07-29T07:25:56.243Z,1016.68
2022-07-29T07:35:35.903Z,1016.63
2022-07-29T07:45:15.900Z,1016.5
2022-07-29T07:54:52.734Z,1016.41
2022-07-29T08:04:29.849Z,1016.41
2022-07-29T08:14:07.539Z,1016.29
2022-07-29T08:23:50.490Z,1016.26
2022-07-29T08:33:26.126Z,1016.23
2022-07-29T08:43:05.506Z,1016.17
2022-07-29T08:52:45.199Z,1016.01
2022-07-29T09:02:24.275Z,1015.97
2022-07-29T09:12:01.022Z,1015.93
2022-07-29T09:21:39.182Z,1015.8
2022-07-29T09:31:18.354Z,1015.62
2022-07-29T09:41:08.419Z,1015.48
2022-07-29T09:50:52.886Z,1015.33
2022-07-29T10:00:36.333Z,1015.19
2022-07-29T10:10:19.770Z,1015.01
2022-07-29T10:19:49.679Z,1015.02
2022-07-29T10:29:27.229Z,1015.1
2022-07-29T10:39:10.181Z,1014.89
2022-07-29T10:48:45.944Z,1014.87
2022-07-29T10:58:25.654Z,1014.78
2022-07-29T11:08:14.881Z,1014.5
2022-07-29T11:17:51.949Z,1014.59
2022-07-29T11:27:20.011Z,1014.53
2022-07-29T11:37:01.361Z,1014.42
2022-07-29T11:46:34.597Z,1014.56
2022-07-29T11:56:11.554Z,1014.29
2022-07-29T12:05:48.022Z,1014.31
2022-07-29T12:25:02.311Z,1014.34
2022-07-29T12:34:35.035Z,1014.22
2022-07-29T12:53:48.913Z,1014.21
2022-07-29T13:03:25.569Z,1014.14
2022-07-29T13:13:02.941Z,1014.13
2022-07-29T13:22:40.534Z,1014.14
2022-07-29T13:32:17.250Z,1014.14
2022-07-29T13:41:55.681Z,1014.04
2022-07-29T13:51:35.411Z,1013.93
2022-07-29T14:01:14.629Z,1014.27
2022-07-29T14:10:57.397Z,1014.19
2022-07-29T14:40:22.057Z,1013.89
2022-07-29T14:50:01.096Z,1013.93
2022-07-29T14:59:37.029Z,1013.87
2022-07-29T15:09:11.763Z,1013.73
2022-07-29T15:28:21.135Z,1013.4
2022-07-29T15:37:57.983Z,1013.21
2022-07-29T15:47:33.938Z,1013.13
2022-07-29T15:57:07.524Z,1013.31
2022-07-29T16:06:42.697Z,1013.31
2022-07-29T16:16:19.555Z,1013.28
2022-07-29T16:26:00.695Z,1013.36
2022-07-29T16:35:39.396Z,1013.36
2022-07-29T16:45:07.430Z,1013.41
2022-07-29T17:04:19.904Z,1013.47
2022-07-29T17:13:55.927Z,1013.49
2022-07-29T17:23:33.015Z,1013.57
2022-07-29T17:42:46.623Z,1013.63
2022-07-29T17:52:23.254Z,1013.6
2022-07-29T18:01:59.999Z,1013.63
2022-07-29T18:11:36.633Z,1013.64
2022-07-29T18:21:13.704Z,1013.89
2022-07-29T18:30:50.388Z,1013.94
2022-07-29T18:40:26.893Z,1014.03
2022-07-29T18:50:03.954Z,1014.09
2022-07-29T19:09:18.424Z,1014.21
2022-07-29T19:18:55.554Z,1014.25
2022-07-29T19:28:32.413Z,1014.43
2022-07-29T19:38:09.836Z,1014.41
2022-07-29T19:47:46.898Z,1014.65
2022-07-29T19:57:23.368Z,1014.81
2022-07-29T20:07:00.141Z,1015.05
2022-07-29T20:16:36.771Z,1015.24
2022-07-29T20:27:17.734Z,1015.33
2022-07-29T20:37:04.778Z,1015.64
2022-07-29T20:46:42.275Z,1015.8
2022-07-29T20:56:19.297Z,1015.83
2022-07-29T21:05:56.337Z,1015.94
2022-07-29T21:15:33.330Z,1016.16
2022-07-29T21:25:09.704Z,1016.26
2022-07-29T21:34:46.358Z,1016.23
2022-07-29T21:44:23.410Z,1016.19
2022-07-29T21:54:00.548Z,1016.1
2022-07-29T22:03:37.908Z,1016.1
2022-07-29T22:13:14.961Z,1016.16
2022-07-29T22:22:52.321Z,1016.22
2022-07-29T22:32:29.694Z,1016.3
2022-07-29T22:42:07.188Z,1016.3
2022-07-29T22:51:44.155Z,1016.4
2022-07-29T23:01:36.130Z,1016.33
2022-07-29T23:10:59.081Z,1016.34
2022-07-29T23:20:36.037Z,1016.22
2022-07-29T23:30:13.114Z,1016.12
2022-07-29T23:39:50.354Z,1016.06
2022-07-29T23:49:27.000Z,1016.13
2022-07-29T23:59:05.704Z,1016.02
